sensor_id;sensor_type;location;lat;lon;timestamp;P1;durP1;ratioP1;P2;durP2;ratioP2
11037;SDS011;5572;49.540;11.932;2022-11-15T00:00:54;35.20;;;18.63;;
11037;SDS011;5572;49.540;11.932;2022-11-15T00:03:21;14.50;;;9.87;;
11037;SDS011;5572;49.540;11.932;2022-11-15T00:05:49;34.70;;;18.10;;
11037;SDS011;5572;49.540;11.932;2022-11-15T00:08:16;22.00;;;12.83;;
11037;SDS011;5572;49.540;11.932;2022-11-15T00:10:42;27.93;;;16.03;;
11037;SDS011;5572;49.540;11.932;2022-11-15T00:13:10;21.83;;;12.37;;
11037;SDS011;5572;49.540;11.932;2022-11-15T00:15:38;18.97;;;10.50;;
11037;SDS011;5572;49.540;11.932;2022-11-15T00:18:10;24.57;;;13.83;;
11037;SDS011;5572;49.540;11.932;2022-11-15T00:20:39;26.77;;;14.43;;
11037;SDS011;5572;49.540;11.932;2022-11-15T00:23:06;22.37;;;13.73;;
11037;SDS011;5572;49.540;11.932;2022-11-15T00:25:33;26.77;;;13.33;;
11037;SDS011;5572;49.540;11.932;2022-11-15T00:28:00;22.97;;;12.87;;
11037;SDS011;5572;49.540;11.932;2022-11-15T00:30:27;24.77;;;14.50;;
11037;SDS011;5572;49.540;11.932;2022-11-15T00:32:54;24.03;;;13.00;;
11037;SDS011;5572;49.540;11.932;2022-11-15T00:35:22;14.90;;;9.97;;
11037;SDS011;5572;49.540;11.932;2022-11-15T00:37:49;27.97;;;16.00;;
11037;SDS011;5572;49.540;11.932;2022-11-15T00:40:15;21.30;;;13.27;;
11037;SDS011;5572;49.540;11.932;2022-11-15T00:42:42;19.80;;;11.67;;
11037;SDS011;5572;49.540;11.932;2022-11-15T00:45:09;17.03;;;10.43;;
11037;SDS011;5572;49.540;11.932;2022-11-15T00:47:36;16.00;;;10.00;;
11037;SDS011;5572;49.540;11.932;2022-11-15T00:50:03;14.53;;;9.53;;
11037;SDS011;5572;49.540;11.932;2022-11-15T00:52:31;17.60;;;10.33;;
11037;SDS011;5572;49.540;11.932;2022-11-15T00:54:58;27.47;;;10.77;;
11037;SDS011;5572;49.540;11.932;2022-11-15T00:57:24;22.93;;;10.90;;
11037;SDS011;5572;49.540;11.932;2022-11-15T00:59:51;16.13;;;10.17;;
11037;SDS011;5572;49.540;11.932;2022-11-15T01:02:17;20.60;;;10.83;;
11037;SDS011;5572;49.540;11.932;2022-11-15T01:04:44;22.80;;;11.70;;
11037;SDS011;5572;49.540;11.932;2022-11-15T01:07:11;11.53;;;8.27;;
11037;SDS011;5572;49.540;11.932;2022-11-15T01:09:39;15.97;;;10.07;;
11037;SDS011;5572;49.540;11.932;2022-11-15T01:12:05;13.17;;;9.27;;
11037;SDS011;5572;49.540;11.932;2022-11-15T01:14:32;11.90;;;8.37;;
11037;SDS011;5572;49.540;11.932;2022-11-15T01:16:58;15.20;;;8.87;;
11037;SDS011;5572;49.540;11.932;2022-11-15T01:19:25;12.23;;;8.07;;
11037;SDS011;5572;49.540;11.932;2022-11-15T01:21:52;18.73;;;8.83;;
11037;SDS011;5572;49.540;11.932;2022-11-15T01:24:18;17.37;;;10.87;;
11037;SDS011;5572;49.540;11.932;2022-11-15T01:26:46;14.53;;;10.27;;
11037;SDS011;5572;49.540;11.932;2022-11-15T01:29:13;18.93;;;11.87;;
11037;SDS011;5572;49.540;11.932;2022-11-15T01:31:39;16.17;;;10.23;;
11037;SDS011;5572;49.540;11.932;2022-11-15T01:34:06;18.27;;;11.27;;
11037;SDS011;5572;49.540;11.932;2022-11-15T01:36:32;23.33;;;10.37;;
11037;SDS011;5572;49.540;11.932;2022-11-15T01:38:59;36.90;;;14.80;;
11037;SDS011;5572;49.540;11.932;2022-11-15T01:41:27;18.77;;;10.87;;
11037;SDS011;5572;49.540;11.932;2022-11-15T01:43:57;11.77;;;7.77;;
11037;SDS011;5572;49.540;11.932;2022-11-15T01:46:44;19.13;;;11.87;;
11037;SDS011;5572;49.540;11.932;2022-11-15T01:49:14;20.23;;;12.10;;
11037;SDS011;5572;49.540;11.932;2022-11-15T01:51:43;14.30;;;9.13;;
11037;SDS011;5572;49.540;11.932;2022-11-15T01:54:11;17.97;;;10.60;;
11037;SDS011;5572;49.540;11.932;2022-11-15T01:56:43;13.63;;;9.27;;
11037;SDS011;5572;49.540;11.932;2022-11-15T01:59:16;23.23;;;11.37;;
11037;SDS011;5572;49.540;11.932;2022-11-15T02:01:44;17.93;;;10.50;;
11037;SDS011;5572;49.540;11.932;2022-11-15T02:04:11;14.97;;;10.00;;
11037;SDS011;5572;49.540;11.932;2022-11-15T02:06:40;15.97;;;10.63;;
11037;SDS011;5572;49.540;11.932;2022-11-15T02:09:08;12.40;;;9.03;;
11037;SDS011;5572;49.540;11.932;2022-11-15T02:11:35;23.97;;;11.93;;
11037;SDS011;5572;49.540;11.932;2022-11-15T02:14:02;12.47;;;8.73;;
11037;SDS011;5572;49.540;11.932;2022-11-15T02:16:33;15.13;;;9.07;;
11037;SDS011;5572;49.540;11.932;2022-11-15T02:19:12;19.40;;;11.63;;
11037;SDS011;5572;49.540;11.932;2022-11-15T02:21:53;15.53;;;9.10;;
11037;SDS011;5572;49.540;11.932;2022-11-15T02:24:54;13.73;;;9.13;;
11037;SDS011;5572;49.540;11.932;2022-11-15T02:27:35;18.70;;;10.07;;
11037;SDS011;5572;49.540;11.932;2022-11-15T02:30:25;14.23;;;9.70;;
11037;SDS011;5572;49.540;11.932;2022-11-15T02:33:00;16.10;;;8.70;;
11037;SDS011;5572;49.540;11.932;2022-11-15T02:35:34;20.53;;;11.40;;
11037;SDS011;5572;49.540;11.932;2022-11-15T02:38:12;15.97;;;9.20;;
11037;SDS011;5572;49.540;11.932;2022-11-15T02:40:46;18.73;;;9.50;;
11037;SDS011;5572;49.540;11.932;2022-11-15T02:43:19;16.70;;;9.20;;
11037;SDS011;5572;49.540;11.932;2022-11-15T02:46:10;15.03;;;8.50;;
11037;SDS011;5572;49.540;11.932;2022-11-15T02:48:44;14.10;;;9.63;;
11037;SDS011;5572;49.540;11.932;2022-11-15T02:51:11;17.57;;;9.70;;
11037;SDS011;5572;49.540;11.932;2022-11-15T02:53:39;18.83;;;8.97;;
11037;SDS011;5572;49.540;11.932;2022-11-15T02:56:07;15.63;;;9.43;;
11037;SDS011;5572;49.540;11.932;2022-11-15T03:01:41;12.03;;;8.50;;
11037;SDS011;5572;49.540;11.932;2022-11-15T03:04:22;8.77;;;6.50;;
11037;SDS011;5572;49.540;11.932;2022-11-15T03:07:02;10.30;;;7.20;;
11037;SDS011;5572;49.540;11.932;2022-11-15T03:09:38;10.53;;;7.33;;
11037;SDS011;5572;49.540;11.932;2022-11-15T03:12:14;17.87;;;11.57;;
11037;SDS011;5572;49.540;11.932;2022-11-15T03:14:48;12.50;;;7.77;;
11037;SDS011;5572;49.540;11.932;2022-11-15T03:17:22;13.87;;;8.80;;
11037;SDS011;5572;49.540;11.932;2022-11-15T03:19:53;9.73;;;6.97;;
11037;SDS011;5572;49.540;11.932;2022-11-15T03:22:22;13.40;;;7.67;;
11037;SDS011;5572;49.540;11.932;2022-11-15T03:24:53;11.70;;;7.07;;
11037;SDS011;5572;49.540;11.932;2022-11-15T03:27:23;23.53;;;12.20;;
11037;SDS011;5572;49.540;11.932;2022-11-15T03:29:55;16.77;;;9.40;;
11037;SDS011;5572;49.540;11.932;2022-11-15T03:32:28;16.60;;;9.73;;
11037;SDS011;5572;49.540;11.932;2022-11-15T03:34:57;20.80;;;9.73;;
11037;SDS011;5572;49.540;11.932;2022-11-15T03:37:29;15.83;;;9.03;;
11037;SDS011;5572;49.540;11.932;2022-11-15T03:39:59;11.90;;;8.57;;
11037;SDS011;5572;49.540;11.932;2022-11-15T03:42:27;10.83;;;7.83;;
11037;SDS011;5572;49.540;11.932;2022-11-15T03:44:58;13.53;;;7.87;;
11037;SDS011;5572;49.540;11.932;2022-11-15T03:47:30;13.97;;;8.53;;
11037;SDS011;5572;49.540;11.932;2022-11-15T03:50:01;11.43;;;8.10;;
11037;SDS011;5572;49.540;11.932;2022-11-15T03:52:31;11.93;;;7.30;;
11037;SDS011;5572;49.540;11.932;2022-11-15T03:55:00;16.47;;;8.70;;
11037;SDS011;5572;49.540;11.932;2022-11-15T03:57:28;12.57;;;8.53;;
11037;SDS011;5572;49.540;11.932;2022-11-15T03:59:55;15.73;;;9.23;;
11037;SDS011;5572;49.540;11.932;2022-11-15T04:02:22;11.53;;;7.47;;
11037;SDS011;5572;49.540;11.932;2022-11-15T04:04:50;10.90;;;7.23;;
11037;SDS011;5572;49.540;11.932;2022-11-15T04:07:17;12.13;;;7.57;;
11037;SDS011;5572;49.540;11.932;2022-11-15T04:09:43;15.47;;;9.37;;
11037;SDS011;5572;49.540;11.932;2022-11-15T04:12:28;13.40;;;7.60;;
11037;SDS011;5572;49.540;11.932;2022-11-15T04:14:58;10.13;;;7.23;;
11037;SDS011;5572;49.540;11.932;2022-11-15T04:17:38;11.83;;;7.40;;
11037;SDS011;5572;49.540;11.932;2022-11-15T04:20:08;10.20;;;6.83;;
11037;SDS011;5572;49.540;11.932;2022-11-15T04:22:54;9.80;;;6.90;;
11037;SDS011;5572;49.540;11.932;2022-11-15T04:25:40;11.73;;;6.97;;
11037;SDS011;5572;49.540;11.932;2022-11-15T04:28:07;42.37;;;9.83;;
11037;SDS011;5572;49.540;11.932;2022-11-15T04:30:33;33.77;;;10.70;;
11037;SDS011;5572;49.540;11.932;2022-11-15T04:33:00;18.00;;;9.53;;
11037;SDS011;5572;49.540;11.932;2022-11-15T04:35:28;28.53;;;11.23;;
11037;SDS011;5572;49.540;11.932;2022-11-15T04:37:55;29.60;;;12.17;;
11037;SDS011;5572;49.540;11.932;2022-11-15T04:40:22;27.00;;;11.63;;
11037;SDS011;5572;49.540;11.932;2022-11-15T04:42:49;47.50;;;12.30;;
11037;SDS011;5572;49.540;11.932;2022-11-15T04:45:16;29.97;;;11.80;;
11037;SDS011;5572;49.540;11.932;2022-11-15T04:47:43;47.63;;;13.93;;
11037;SDS011;5572;49.540;11.932;2022-11-15T04:50:10;19.27;;;11.13;;
11037;SDS011;5572;49.540;11.932;2022-11-15T04:52:39;29.60;;;9.67;;
11037;SDS011;5572;49.540;11.932;2022-11-15T04:55:07;274.90;;;37.47;;
11037;SDS011;5572;49.540;11.932;2022-11-15T04:57:34;41.13;;;15.27;;
11037;SDS011;5572;49.540;11.932;2022-11-15T05:00:00;47.90;;;13.93;;
11037;SDS011;5572;49.540;11.932;2022-11-15T05:02:28;36.30;;;12.63;;
11037;SDS011;5572;49.540;11.932;2022-11-15T05:05:15;43.37;;;14.57;;
11037;SDS011;5572;49.540;11.932;2022-11-15T05:07:42;27.47;;;10.80;;
11037;SDS011;5572;49.540;11.932;2022-11-15T05:10:08;44.87;;;13.90;;
11037;SDS011;5572;49.540;11.932;2022-11-15T05:12:35;60.07;;;13.97;;
11037;SDS011;5572;49.540;11.932;2022-11-15T05:15:02;56.97;;;16.20;;
11037;SDS011;5572;49.540;11.932;2022-11-15T05:17:29;56.03;;;13.90;;
11037;SDS011;5572;49.540;11.932;2022-11-15T05:19:56;63.07;;;14.30;;
11037;SDS011;5572;49.540;11.932;2022-11-15T05:22:22;97.77;;;17.27;;
11037;SDS011;5572;49.540;11.932;2022-11-15T05:24:50;133.43;;;18.70;;
11037;SDS011;5572;49.540;11.932;2022-11-15T05:27:17;34.40;;;10.47;;
11037;SDS011;5572;49.540;11.932;2022-11-15T05:29:44;57.63;;;13.37;;
11037;SDS011;5572;49.540;11.932;2022-11-15T05:32:10;78.40;;;14.90;;
11037;SDS011;5572;49.540;11.932;2022-11-15T05:34:38;30.93;;;11.17;;
11037;SDS011;5572;49.540;11.932;2022-11-15T05:37:04;51.97;;;15.43;;
11037;SDS011;5572;49.540;11.932;2022-11-15T05:39:31;66.90;;;13.10;;
11037;SDS011;5572;49.540;11.932;2022-11-15T05:42:00;122.50;;;14.53;;
11037;SDS011;5572;49.540;11.932;2022-11-15T05:44:32;75.33;;;12.37;;
11037;SDS011;5572;49.540;11.932;2022-11-15T05:47:04;60.93;;;12.53;;
11037;SDS011;5572;49.540;11.932;2022-11-15T05:49:35;57.57;;;13.63;;
11037;SDS011;5572;49.540;11.932;2022-11-15T05:52:04;121.57;;;14.43;;
11037;SDS011;5572;49.540;11.932;2022-11-15T05:54:33;106.17;;;15.60;;
11037;SDS011;5572;49.540;11.932;2022-11-15T05:57:03;56.63;;;12.50;;
11037;SDS011;5572;49.540;11.932;2022-11-15T05:59:30;30.93;;;12.13;;
11037;SDS011;5572;49.540;11.932;2022-11-15T06:01:58;23.83;;;11.23;;
11037;SDS011;5572;49.540;11.932;2022-11-15T06:04:25;33.07;;;11.90;;
11037;SDS011;5572;49.540;11.932;2022-11-15T06:06:52;36.80;;;11.53;;
11037;SDS011;5572;49.540;11.932;2022-11-15T06:09:19;110.23;;;20.73;;
11037;SDS011;5572;49.540;11.932;2022-11-15T06:11:45;16.87;;;9.67;;
11037;SDS011;5572;49.540;11.932;2022-11-15T06:14:14;30.73;;;12.43;;
11037;SDS011;5572;49.540;11.932;2022-11-15T06:16:43;35.20;;;11.60;;
11037;SDS011;5572;49.540;11.932;2022-11-15T06:19:10;14.63;;;8.43;;
11037;SDS011;5572;49.540;11.932;2022-11-15T06:21:37;11.00;;;7.90;;
11037;SDS011;5572;49.540;11.932;2022-11-15T06:24:04;16.93;;;9.17;;
11037;SDS011;5572;49.540;11.932;2022-11-15T06:26:33;13.77;;;8.97;;
11037;SDS011;5572;49.540;11.932;2022-11-15T06:29:02;345.37;;;49.33;;
11037;SDS011;5572;49.540;11.932;2022-11-15T06:31:30;18.27;;;9.40;;
11037;SDS011;5572;49.540;11.932;2022-11-15T06:33:57;22.00;;;11.17;;
11037;SDS011;5572;49.540;11.932;2022-11-15T06:36:26;30.47;;;11.17;;
11037;SDS011;5572;49.540;11.932;2022-11-15T06:38:53;16.63;;;9.53;;
11037;SDS011;5572;49.540;11.932;2022-11-15T06:41:19;16.60;;;10.33;;
11037;SDS011;5572;49.540;11.932;2022-11-15T06:43:47;21.13;;;10.63;;
11037;SDS011;5572;49.540;11.932;2022-11-15T06:46:13;18.83;;;9.73;;
11037;SDS011;5572;49.540;11.932;2022-11-15T06:48:49;18.93;;;10.47;;
11037;SDS011;5572;49.540;11.932;2022-11-15T06:51:16;19.87;;;10.07;;
11037;SDS011;5572;49.540;11.932;2022-11-15T06:53:43;29.43;;;11.13;;
11037;SDS011;5572;49.540;11.932;2022-11-15T06:56:10;26.40;;;10.47;;
11037;SDS011;5572;49.540;11.932;2022-11-15T06:58:37;72.10;;;11.67;;
11037;SDS011;5572;49.540;11.932;2022-11-15T07:01:04;38.63;;;12.73;;
11037;SDS011;5572;49.540;11.932;2022-11-15T07:03:34;50.90;;;12.13;;
11037;SDS011;5572;49.540;11.932;2022-11-15T07:06:02;57.17;;;11.30;;
11037;SDS011;5572;49.540;11.932;2022-11-15T07:08:29;55.17;;;13.00;;
11037;SDS011;5572;49.540;11.932;2022-11-15T07:10:57;34.57;;;14.33;;
11037;SDS011;5572;49.540;11.932;2022-11-15T07:13:26;114.73;;;46.73;;
11037;SDS011;5572;49.540;11.932;2022-11-15T07:15:53;38.90;;;18.47;;
11037;SDS011;5572;49.540;11.932;2022-11-15T07:18:20;37.37;;;13.47;;
11037;SDS011;5572;49.540;11.932;2022-11-15T07:20:47;49.23;;;19.90;;
11037;SDS011;5572;49.540;11.932;2022-11-15T07:23:15;280.80;;;42.87;;
11037;SDS011;5572;49.540;11.932;2022-11-15T07:25:41;57.27;;;21.63;;
11037;SDS011;5572;49.540;11.932;2022-11-15T07:28:08;113.17;;;21.57;;
11037;SDS011;5572;49.540;11.932;2022-11-15T07:30:35;113.47;;;24.40;;
11037;SDS011;5572;49.540;11.932;2022-11-15T07:33:02;62.13;;;23.63;;
11037;SDS011;5572;49.540;11.932;2022-11-15T07:35:29;397.97;;;50.73;;
11037;SDS011;5572;49.540;11.932;2022-11-15T07:37:56;84.73;;;17.23;;
11037;SDS011;5572;49.540;11.932;2022-11-15T07:40:25;55.93;;;12.90;;
11037;SDS011;5572;49.540;11.932;2022-11-15T07:42:58;206.73;;;29.13;;
11037;SDS011;5572;49.540;11.932;2022-11-15T07:45:25;69.00;;;14.53;;
11037;SDS011;5572;49.540;11.932;2022-11-15T07:47:52;81.17;;;13.40;;
11037;SDS011;5572;49.540;11.932;2022-11-15T07:50:20;116.37;;;15.57;;
11037;SDS011;5572;49.540;11.932;2022-11-15T07:52:52;212.77;;;17.77;;
11037;SDS011;5572;49.540;11.932;2022-11-15T07:55:19;64.20;;;15.23;;
11037;SDS011;5572;49.540;11.932;2022-11-15T07:57:47;532.87;;;50.17;;
11037;SDS011;5572;49.540;11.932;2022-11-15T08:00:14;231.77;;;27.10;;
11037;SDS011;5572;49.540;11.932;2022-11-15T08:02:46;234.23;;;40.20;;
11037;SDS011;5572;49.540;11.932;2022-11-15T08:05:12;122.73;;;25.70;;
11037;SDS011;5572;49.540;11.932;2022-11-15T08:07:39;116.53;;;27.37;;
11037;SDS011;5572;49.540;11.932;2022-11-15T08:10:06;122.70;;;24.03;;
11037;SDS011;5572;49.540;11.932;2022-11-15T08:12:34;106.23;;;23.40;;
11037;SDS011;5572;49.540;11.932;2022-11-15T08:15:02;141.27;;;27.00;;
11037;SDS011;5572;49.540;11.932;2022-11-15T08:17:29;118.50;;;23.43;;
11037;SDS011;5572;49.540;11.932;2022-11-15T08:19:57;204.47;;;27.87;;
11037;SDS011;5572;49.540;11.932;2022-11-15T08:22:24;139.13;;;26.33;;
11037;SDS011;5572;49.540;11.932;2022-11-15T08:24:51;196.10;;;25.50;;
11037;SDS011;5572;49.540;11.932;2022-11-15T08:27:17;209.97;;;28.97;;
11037;SDS011;5572;49.540;11.932;2022-11-15T08:29:44;150.37;;;22.13;;
11037;SDS011;5572;49.540;11.932;2022-11-15T08:32:12;128.43;;;20.80;;
11037;SDS011;5572;49.540;11.932;2022-11-15T08:34:39;113.77;;;20.50;;
11037;SDS011;5572;49.540;11.932;2022-11-15T08:37:06;112.20;;;20.77;;
11037;SDS011;5572;49.540;11.932;2022-11-15T08:39:32;144.23;;;30.20;;
11037;SDS011;5572;49.540;11.932;2022-11-15T08:41:59;96.73;;;18.73;;
11037;SDS011;5572;49.540;11.932;2022-11-15T08:44:26;225.97;;;29.40;;
11037;SDS011;5572;49.540;11.932;2022-11-15T08:46:52;156.07;;;20.57;;
11037;SDS011;5572;49.540;11.932;2022-11-15T08:49:21;138.37;;;18.63;;
11037;SDS011;5572;49.540;11.932;2022-11-15T08:51:47;72.33;;;17.60;;
11037;SDS011;5572;49.540;11.932;2022-11-15T08:54:15;49.50;;;19.93;;
11037;SDS011;5572;49.540;11.932;2022-11-15T08:56:41;99.13;;;32.70;;
11037;SDS011;5572;49.540;11.932;2022-11-15T08:59:08;54.43;;;24.07;;
11037;SDS011;5572;49.540;11.932;2022-11-15T09:01:35;49.80;;;21.40;;
11037;SDS011;5572;49.540;11.932;2022-11-15T09:04:01;50.43;;;23.57;;
11037;SDS011;5572;49.540;11.932;2022-11-15T09:06:30;40.70;;;21.23;;
11037;SDS011;5572;49.540;11.932;2022-11-15T09:08:56;42.63;;;19.93;;
11037;SDS011;5572;49.540;11.932;2022-11-15T09:11:23;35.20;;;18.43;;
11037;SDS011;5572;49.540;11.932;2022-11-15T09:13:51;39.77;;;19.10;;
11037;SDS011;5572;49.540;11.932;2022-11-15T09:16:18;44.37;;;21.63;;
11037;SDS011;5572;49.540;11.932;2022-11-15T09:18:44;39.90;;;19.00;;
11037;SDS011;5572;49.540;11.932;2022-11-15T09:21:11;38.60;;;18.33;;
11037;SDS011;5572;49.540;11.932;2022-11-15T09:23:39;32.83;;;17.40;;
11037;SDS011;5572;49.540;11.932;2022-11-15T09:26:05;33.70;;;17.97;;
11037;SDS011;5572;49.540;11.932;2022-11-15T09:28:32;24.07;;;16.27;;
11037;SDS011;5572;49.540;11.932;2022-11-15T09:30:59;46.00;;;23.00;;
11037;SDS011;5572;49.540;11.932;2022-11-15T09:33:27;23.87;;;15.33;;
11037;SDS011;5572;49.540;11.932;2022-11-15T09:35:56;21.73;;;13.23;;
11037;SDS011;5572;49.540;11.932;2022-11-15T09:38:27;26.30;;;14.83;;
11037;SDS011;5572;49.540;11.932;2022-11-15T09:40:57;30.60;;;14.50;;
11037;SDS011;5572;49.540;11.932;2022-11-15T09:43:43;23.37;;;14.27;;
11037;SDS011;5572;49.540;11.932;2022-11-15T09:46:19;30.77;;;17.00;;
11037;SDS011;5572;49.540;11.932;2022-11-15T09:48:53;28.47;;;13.93;;
11037;SDS011;5572;49.540;11.932;2022-11-15T09:51:26;25.17;;;12.80;;
11037;SDS011;5572;49.540;11.932;2022-11-15T09:53:57;27.07;;;15.93;;
11037;SDS011;5572;49.540;11.932;2022-11-15T09:56:30;37.10;;;19.57;;
11037;SDS011;5572;49.540;11.932;2022-11-15T09:59:01;22.40;;;13.93;;
11037;SDS011;5572;49.540;11.932;2022-11-15T10:01:39;39.13;;;19.47;;
11037;SDS011;5572;49.540;11.932;2022-11-15T10:04:11;61.33;;;26.37;;
11037;SDS011;5572;49.540;11.932;2022-11-15T10:06:38;20.80;;;12.40;;
11037;SDS011;5572;49.540;11.932;2022-11-15T10:09:12;14.27;;;10.20;;
11037;SDS011;5572;49.540;11.932;2022-11-15T10:11:44;17.57;;;10.27;;
11037;SDS011;5572;49.540;11.932;2022-11-15T10:14:11;26.47;;;13.20;;
11037;SDS011;5572;49.540;11.932;2022-11-15T10:19:42;20.97;;;12.57;;
11037;SDS011;5572;49.540;11.932;2022-11-15T10:22:24;22.63;;;12.17;;
11037;SDS011;5572;49.540;11.932;2022-11-15T10:24:59;36.30;;;17.10;;
11037;SDS011;5572;49.540;11.932;2022-11-15T10:27:38;20.43;;;12.47;;
11037;SDS011;5572;49.540;11.932;2022-11-15T10:30:08;21.43;;;12.30;;
11037;SDS011;5572;49.540;11.932;2022-11-15T10:32:38;16.43;;;10.83;;
11037;SDS011;5572;49.540;11.932;2022-11-15T10:35:20;17.17;;;9.60;;
11037;SDS011;5572;49.540;11.932;2022-11-15T10:38:08;15.77;;;9.80;;
11037;SDS011;5572;49.540;11.932;2022-11-15T10:40:36;17.57;;;9.60;;
11037;SDS011;5572;49.540;11.932;2022-11-15T10:43:12;14.90;;;7.90;;
11037;SDS011;5572;49.540;11.932;2022-11-15T10:45:40;15.70;;;9.00;;
11037;SDS011;5572;49.540;11.932;2022-11-15T10:48:21;10.37;;;8.07;;
11037;SDS011;5572;49.540;11.932;2022-11-15T10:50:52;12.00;;;8.93;;
11037;SDS011;5572;49.540;11.932;2022-11-15T10:53:21;10.87;;;7.77;;
11037;SDS011;5572;49.540;11.932;2022-11-15T10:55:51;12.73;;;7.87;;
11037;SDS011;5572;49.540;11.932;2022-11-15T10:58:28;10.57;;;7.97;;
11037;SDS011;5572;49.540;11.932;2022-11-15T11:01:09;13.63;;;8.17;;
11037;SDS011;5572;49.540;11.932;2022-11-15T11:03:39;10.47;;;7.07;;
11037;SDS011;5572;49.540;11.932;2022-11-15T11:06:08;10.23;;;7.27;;
11037;SDS011;5572;49.540;11.932;2022-11-15T11:08:36;13.20;;;7.33;;
11037;SDS011;5572;49.540;11.932;2022-11-15T11:11:04;10.73;;;7.03;;
11037;SDS011;5572;49.540;11.932;2022-11-15T11:13:34;20.03;;;7.73;;
11037;SDS011;5572;49.540;11.932;2022-11-15T11:16:14;9.87;;;6.93;;
11037;SDS011;5572;49.540;11.932;2022-11-15T11:18:48;8.93;;;6.70;;
11037;SDS011;5572;49.540;11.932;2022-11-15T11:21:22;13.63;;;9.07;;
11037;SDS011;5572;49.540;11.932;2022-11-15T11:23:57;15.27;;;9.90;;
11037;SDS011;5572;49.540;11.932;2022-11-15T11:26:35;9.83;;;7.40;;
11037;SDS011;5572;49.540;11.932;2022-11-15T11:29:10;24.43;;;12.53;;
11037;SDS011;5572;49.540;11.932;2022-11-15T11:31:51;9.40;;;6.77;;
11037;SDS011;5572;49.540;11.932;2022-11-15T11:34:42;14.00;;;7.63;;
11037;SDS011;5572;49.540;11.932;2022-11-15T11:37:23;13.60;;;7.67;;
11037;SDS011;5572;49.540;11.932;2022-11-15T11:39:58;8.47;;;6.77;;
11037;SDS011;5572;49.540;11.932;2022-11-15T11:42:38;11.53;;;8.30;;
11037;SDS011;5572;49.540;11.932;2022-11-15T11:45:15;9.27;;;6.17;;
11037;SDS011;5572;49.540;11.932;2022-11-15T11:47:46;9.00;;;6.40;;
11037;SDS011;5572;49.540;11.932;2022-11-15T11:50:15;10.23;;;6.80;;
11037;SDS011;5572;49.540;11.932;2022-11-15T11:52:49;8.53;;;6.53;;
11037;SDS011;5572;49.540;11.932;2022-11-15T11:55:23;10.17;;;6.30;;
11037;SDS011;5572;49.540;11.932;2022-11-15T11:57:56;8.67;;;6.57;;
11037;SDS011;5572;49.540;11.932;2022-11-15T12:00:38;7.03;;;5.43;;
11037;SDS011;5572;49.540;11.932;2022-11-15T12:03:09;6.93;;;5.60;;
11037;SDS011;5572;49.540;11.932;2022-11-15T12:05:40;10.13;;;5.77;;
11037;SDS011;5572;49.540;11.932;2022-11-15T12:08:15;6.67;;;5.70;;
11037;SDS011;5572;49.540;11.932;2022-11-15T12:10:50;8.50;;;6.20;;
11037;SDS011;5572;49.540;11.932;2022-11-15T12:13:24;8.23;;;6.37;;
11037;SDS011;5572;49.540;11.932;2022-11-15T12:16:04;5.87;;;5.20;;
11037;SDS011;5572;49.540;11.932;2022-11-15T12:18:39;10.37;;;5.87;;
11037;SDS011;5572;49.540;11.932;2022-11-15T12:21:14;9.50;;;5.80;;
11037;SDS011;5572;49.540;11.932;2022-11-15T12:23:46;8.20;;;5.80;;
11037;SDS011;5572;49.540;11.932;2022-11-15T12:26:17;7.97;;;5.20;;
11037;SDS011;5572;49.540;11.932;2022-11-15T12:28:49;9.43;;;5.47;;
11037;SDS011;5572;49.540;11.932;2022-11-15T12:31:22;6.60;;;5.43;;
11037;SDS011;5572;49.540;11.932;2022-11-15T12:33:54;7.70;;;5.97;;
11037;SDS011;5572;49.540;11.932;2022-11-15T12:36:36;7.67;;;5.57;;
11037;SDS011;5572;49.540;11.932;2022-11-15T12:39:05;5.70;;;4.80;;
11037;SDS011;5572;49.540;11.932;2022-11-15T12:41:34;9.43;;;5.53;;
11037;SDS011;5572;49.540;11.932;2022-11-15T12:44:02;7.83;;;5.83;;
11037;SDS011;5572;49.540;11.932;2022-11-15T12:49:49;5.60;;;4.87;;
11037;SDS011;5572;49.540;11.932;2022-11-15T12:52:16;7.33;;;5.00;;
11037;SDS011;5572;49.540;11.932;2022-11-15T12:54:50;7.40;;;5.20;;
11037;SDS011;5572;49.540;11.932;2022-11-15T12:57:34;8.87;;;4.77;;
11037;SDS011;5572;49.540;11.932;2022-11-15T13:03:18;9.63;;;4.80;;
11037;SDS011;5572;49.540;11.932;2022-11-15T13:05:57;5.60;;;4.80;;
11037;SDS011;5572;49.540;11.932;2022-11-15T13:08:39;8.13;;;4.60;;
11037;SDS011;5572;49.540;11.932;2022-11-15T13:17:23;4.53;;;4.07;;
11037;SDS011;5572;49.540;11.932;2022-11-15T13:19:59;5.93;;;4.80;;
11037;SDS011;5572;49.540;11.932;2022-11-15T13:22:37;5.17;;;4.33;;
11037;SDS011;5572;49.540;11.932;2022-11-15T13:25:22;6.17;;;4.67;;
11037;SDS011;5572;49.540;11.932;2022-11-15T13:28:10;4.43;;;3.77;;
11037;SDS011;5572;49.540;11.932;2022-11-15T13:30:48;4.20;;;3.80;;
11037;SDS011;5572;49.540;11.932;2022-11-15T13:33:17;4.40;;;3.50;;
11037;SDS011;5572;49.540;11.932;2022-11-15T13:35:47;7.10;;;4.33;;
11037;SDS011;5572;49.540;11.932;2022-11-15T13:38:18;4.00;;;3.53;;
11037;SDS011;5572;49.540;11.932;2022-11-15T13:40:51;38.93;;;18.97;;
11037;SDS011;5572;49.540;11.932;2022-11-15T13:43:25;72.43;;;32.33;;
11037;SDS011;5572;49.540;11.932;2022-11-15T13:46:06;41.77;;;22.40;;
11037;SDS011;5572;49.540;11.932;2022-11-15T13:48:43;13.83;;;7.27;;
11037;SDS011;5572;49.540;11.932;2022-11-15T13:51:15;7.27;;;5.10;;
11037;SDS011;5572;49.540;11.932;2022-11-15T13:53:46;5.20;;;4.37;;
11037;SDS011;5572;49.540;11.932;2022-11-15T13:56:16;5.37;;;4.60;;
11037;SDS011;5572;49.540;11.932;2022-11-15T13:58:44;5.93;;;4.10;;
11037;SDS011;5572;49.540;11.932;2022-11-15T14:01:14;5.03;;;4.20;;
11037;SDS011;5572;49.540;11.932;2022-11-15T14:03:46;4.10;;;3.70;;
11037;SDS011;5572;49.540;11.932;2022-11-15T14:06:21;3.80;;;3.30;;
11037;SDS011;5572;49.540;11.932;2022-11-15T14:09:00;4.77;;;3.80;;
11037;SDS011;5572;49.540;11.932;2022-11-15T14:11:48;5.30;;;3.97;;
11037;SDS011;5572;49.540;11.932;2022-11-15T14:14:16;4.87;;;3.60;;
11037;SDS011;5572;49.540;11.932;2022-11-15T14:16:47;3.83;;;3.53;;
11037;SDS011;5572;49.540;11.932;2022-11-15T14:22:12;4.37;;;3.23;;
11037;SDS011;5572;49.540;11.932;2022-11-15T14:24:42;4.33;;;3.70;;
11037;SDS011;5572;49.540;11.932;2022-11-15T14:27:23;8.50;;;5.23;;
11037;SDS011;5572;49.540;11.932;2022-11-15T14:29:52;5.00;;;4.47;;
11037;SDS011;5572;49.540;11.932;2022-11-15T14:32:19;8.23;;;4.70;;
11037;SDS011;5572;49.540;11.932;2022-11-15T14:34:47;8.40;;;5.10;;
11037;SDS011;5572;49.540;11.932;2022-11-15T14:37:19;4.47;;;3.53;;
11037;SDS011;5572;49.540;11.932;2022-11-15T14:39:48;4.23;;;3.40;;
11037;SDS011;5572;49.540;11.932;2022-11-15T14:42:15;5.30;;;3.63;;
11037;SDS011;5572;49.540;11.932;2022-11-15T14:44:42;7.03;;;3.30;;
11037;SDS011;5572;49.540;11.932;2022-11-15T14:47:09;4.30;;;3.60;;
11037;SDS011;5572;49.540;11.932;2022-11-15T14:49:36;4.20;;;3.73;;
11037;SDS011;5572;49.540;11.932;2022-11-15T14:52:04;3.97;;;3.57;;
11037;SDS011;5572;49.540;11.932;2022-11-15T14:54:50;4.87;;;3.73;;
11037;SDS011;5572;49.540;11.932;2022-11-15T14:57:17;6.57;;;4.60;;
11037;SDS011;5572;49.540;11.932;2022-11-15T14:59:43;7.30;;;4.00;;
11037;SDS011;5572;49.540;11.932;2022-11-15T15:02:13;4.43;;;3.50;;
11037;SDS011;5572;49.540;11.932;2022-11-15T15:04:42;3.93;;;3.53;;
11037;SDS011;5572;49.540;11.932;2022-11-15T15:07:09;4.23;;;3.50;;
11037;SDS011;5572;49.540;11.932;2022-11-15T15:09:35;3.40;;;3.10;;